sensor_id;sensor_type;location;lat;lon;timestamp;P1;durP1;ratioP1;P2;durP2;ratioP2
48207;SDS011;33997;53.278;9.708;2023-09-19T00:01:22;4.28;;;2.17;;
48207;SDS011;33997;53.278;9.708;2023-09-19T00:03:49;6.43;;;2.15;;
48207;SDS011;33997;53.278;9.708;2023-09-19T00:06:14;3.80;;;1.80;;
48207;SDS011;33997;53.278;9.708;2023-09-19T00:08:40;4.38;;;1.73;;
48207;SDS011;33997;53.278;9.708;2023-09-19T00:11:09;4.32;;;1.90;;
48207;SDS011;33997;53.278;9.708;2023-09-19T00:13:36;5.05;;;2.30;;
48207;SDS011;33997;53.278;9.708;2023-09-19T00:16:07;6.30;;;2.60;;
48207;SDS011;33997;53.278;9.708;2023-09-19T00:18:35;3.80;;;2.03;;
48207;SDS011;33997;53.278;9.708;2023-09-19T00:21:01;6.53;;;2.30;;
48207;SDS011;33997;53.278;9.708;2023-09-19T00:23:29;2.63;;;1.67;;
48207;SDS011;33997;53.278;9.708;2023-09-19T00:25:58;4.97;;;2.42;;
48207;SDS011;33997;53.278;9.708;2023-09-19T00:28:24;4.93;;;2.10;;
48207;SDS011;33997;53.278;9.708;2023-09-19T00:30:50;7.47;;;2.38;;
48207;SDS011;33997;53.278;9.708;2023-09-19T00:33:15;4.47;;;2.35;;
48207;SDS011;33997;53.278;9.708;2023-09-19T00:35:51;3.45;;;2.08;;
48207;SDS011;33997;53.278;9.708;2023-09-19T00:38:18;6.70;;;2.50;;
48207;SDS011;33997;53.278;9.708;2023-09-19T00:40:50;6.00;;;2.33;;
48207;SDS011;33997;53.278;9.708;2023-09-19T00:43:21;6.38;;;2.47;;
48207;SDS011;33997;53.278;9.708;2023-09-19T00:45:49;5.32;;;2.40;;
48207;SDS011;33997;53.278;9.708;2023-09-19T00:48:16;4.75;;;2.47;;
48207;SDS011;33997;53.278;9.708;2023-09-19T00:50:43;6.40;;;2.58;;
48207;SDS011;33997;53.278;9.708;2023-09-19T00:53:12;7.60;;;2.65;;
48207;SDS011;33997;53.278;9.708;2023-09-19T00:55:39;5.57;;;2.85;;
48207;SDS011;33997;53.278;9.708;2023-09-19T00:58:07;4.97;;;2.97;;
48207;SDS011;33997;53.278;9.708;2023-09-19T01:00:33;7.57;;;3.00;;
48207;SDS011;33997;53.278;9.708;2023-09-19T01:03:02;8.35;;;3.30;;
48207;SDS011;33997;53.278;9.708;2023-09-19T01:05:28;6.32;;;3.00;;
48207;SDS011;33997;53.278;9.708;2023-09-19T01:07:54;6.60;;;3.38;;
48207;SDS011;33997;53.278;9.708;2023-09-19T01:10:20;4.57;;;2.97;;
48207;SDS011;33997;53.278;9.708;2023-09-19T01:13:34;6.10;;;3.33;;
48207;SDS011;33997;53.278;9.708;2023-09-19T01:15:40;7.55;;;3.25;;
48207;SDS011;33997;53.278;9.708;2023-09-19T01:18:27;7.55;;;3.55;;
48207;SDS011;33997;53.278;9.708;2023-09-19T01:21:07;7.45;;;3.58;;
48207;SDS011;33997;53.278;9.708;2023-09-19T01:29:42;6.03;;;2.95;;
48207;SDS011;33997;53.278;9.708;2023-09-19T01:32:11;6.90;;;3.13;;
48207;SDS011;33997;53.278;9.708;2023-09-19T01:34:50;7.90;;;3.13;;
48207;SDS011;33997;53.278;9.708;2023-09-19T01:37:19;6.65;;;2.83;;
48207;SDS011;33997;53.278;9.708;2023-09-19T01:39:52;6.80;;;3.03;;
48207;SDS011;33997;53.278;9.708;2023-09-19T01:45:03;7.30;;;3.15;;
48207;SDS011;33997;53.278;9.708;2023-09-19T01:47:42;7.28;;;3.45;;
48207;SDS011;33997;53.278;9.708;2023-09-19T01:50:30;8.55;;;3.50;;
48207;SDS011;33997;53.278;9.708;2023-09-19T01:55:50;7.80;;;2.95;;
48207;SDS011;33997;53.278;9.708;2023-09-19T01:58:20;7.63;;;3.08;;
48207;SDS011;33997;53.278;9.708;2023-09-19T02:00:54;5.22;;;3.05;;
48207;SDS011;33997;53.278;9.708;2023-09-19T02:03:23;5.15;;;2.85;;
48207;SDS011;33997;53.278;9.708;2023-09-19T02:05:52;5.80;;;3.03;;
48207;SDS011;33997;53.278;9.708;2023-09-19T02:08:19;8.32;;;3.85;;
48207;SDS011;33997;53.278;9.708;2023-09-19T02:10:45;8.13;;;3.33;;
48207;SDS011;33997;53.278;9.708;2023-09-19T02:13:14;8.38;;;3.25;;
48207;SDS011;33997;53.278;9.708;2023-09-19T02:15:44;7.43;;;3.30;;
48207;SDS011;33997;53.278;9.708;2023-09-19T02:18:09;6.68;;;3.40;;
48207;SDS011;33997;53.278;9.708;2023-09-19T02:20:36;6.47;;;3.33;;
48207;SDS011;33997;53.278;9.708;2023-09-19T02:23:02;11.35;;;3.25;;
48207;SDS011;33997;53.278;9.708;2023-09-19T02:25:29;5.05;;;2.90;;
48207;SDS011;33997;53.278;9.708;2023-09-19T02:27:56;5.40;;;3.00;;
48207;SDS011;33997;53.278;9.708;2023-09-19T02:30:23;7.85;;;2.80;;
48207;SDS011;33997;53.278;9.708;2023-09-19T02:32:50;5.65;;;2.33;;
48207;SDS011;33997;53.278;9.708;2023-09-19T02:35:15;7.40;;;2.97;;
48207;SDS011;33997;53.278;9.708;2023-09-19T02:37:41;10.05;;;3.20;;
48207;SDS011;33997;53.278;9.708;2023-09-19T02:40:07;9.40;;;3.05;;
48207;SDS011;33997;53.278;9.708;2023-09-19T02:42:43;6.75;;;2.47;;
48207;SDS011;33997;53.278;9.708;2023-09-19T02:45:14;7.68;;;2.58;;
48207;SDS011;33997;53.278;9.708;2023-09-19T02:47:40;4.55;;;1.77;;
48207;SDS011;33997;53.278;9.708;2023-09-19T02:50:06;4.65;;;1.90;;
48207;SDS011;33997;53.278;9.708;2023-09-19T02:52:31;3.75;;;2.03;;
48207;SDS011;33997;53.278;9.708;2023-09-19T02:54:57;5.53;;;1.98;;
48207;SDS011;33997;53.278;9.708;2023-09-19T02:57:22;4.90;;;1.55;;
48207;SDS011;33997;53.278;9.708;2023-09-19T02:59:49;5.30;;;1.95;;
48207;SDS011;33997;53.278;9.708;2023-09-19T03:02:14;4.95;;;1.60;;
48207;SDS011;33997;53.278;9.708;2023-09-19T03:04:40;3.80;;;1.10;;
48207;SDS011;33997;53.278;9.708;2023-09-19T03:07:06;3.70;;;1.23;;
48207;SDS011;33997;53.278;9.708;2023-09-19T03:09:31;3.72;;;0.90;;
48207;SDS011;33997;53.278;9.708;2023-09-19T03:11:57;5.22;;;1.10;;
48207;SDS011;33997;53.278;9.708;2023-09-19T03:14:23;3.80;;;0.93;;
48207;SDS011;33997;53.278;9.708;2023-09-19T03:16:48;1.42;;;0.68;;
48207;SDS011;33997;53.278;9.708;2023-09-19T03:19:14;4.40;;;0.73;;
48207;SDS011;33997;53.278;9.708;2023-09-19T03:21:40;2.38;;;0.90;;
48207;SDS011;33997;53.278;9.708;2023-09-19T03:24:05;1.90;;;0.60;;
48207;SDS011;33997;53.278;9.708;2023-09-19T03:26:31;4.25;;;1.10;;
48207;SDS011;33997;53.278;9.708;2023-09-19T03:28:58;2.45;;;0.90;;
48207;SDS011;33997;53.278;9.708;2023-09-19T03:31:23;5.43;;;1.05;;
48207;SDS011;33997;53.278;9.708;2023-09-19T03:33:49;2.63;;;0.80;;
48207;SDS011;33997;53.278;9.708;2023-09-19T03:36:14;2.75;;;0.90;;
48207;SDS011;33997;53.278;9.708;2023-09-19T03:38:40;7.10;;;0.90;;
48207;SDS011;33997;53.278;9.708;2023-09-19T03:41:05;2.45;;;0.88;;
48207;SDS011;33997;53.278;9.708;2023-09-19T03:43:34;3.08;;;0.82;;
48207;SDS011;33997;53.278;9.708;2023-09-19T03:46:02;3.25;;;0.95;;
48207;SDS011;33997;53.278;9.708;2023-09-19T03:48:32;2.72;;;0.77;;
48207;SDS011;33997;53.278;9.708;2023-09-19T03:50:58;3.35;;;1.05;;
48207;SDS011;33997;53.278;9.708;2023-09-19T03:53:23;4.50;;;0.90;;
48207;SDS011;33997;53.278;9.708;2023-09-19T03:55:49;3.45;;;0.70;;
48207;SDS011;33997;53.278;9.708;2023-09-19T03:58:15;2.63;;;1.08;;
48207;SDS011;33997;53.278;9.708;2023-09-19T04:00:40;3.92;;;1.00;;
48207;SDS011;33997;53.278;9.708;2023-09-19T04:03:06;2.05;;;0.70;;
48207;SDS011;33997;53.278;9.708;2023-09-19T04:05:32;3.88;;;0.93;;
48207;SDS011;33997;53.278;9.708;2023-09-19T04:07:58;2.05;;;0.80;;
48207;SDS011;33997;53.278;9.708;2023-09-19T04:10:24;4.20;;;1.17;;
48207;SDS011;33997;53.278;9.708;2023-09-19T04:12:53;3.63;;;0.90;;
48207;SDS011;33997;53.278;9.708;2023-09-19T04:15:19;6.35;;;1.27;;
48207;SDS011;33997;53.278;9.708;2023-09-19T04:17:47;2.30;;;0.90;;
48207;SDS011;33997;53.278;9.708;2023-09-19T04:20:12;3.35;;;1.02;;
48207;SDS011;33997;53.278;9.708;2023-09-19T04:22:38;4.90;;;1.00;;
48207;SDS011;33997;53.278;9.708;2023-09-19T04:25:04;3.85;;;0.77;;
48207;SDS011;33997;53.278;9.708;2023-09-19T04:27:31;3.78;;;1.10;;
48207;SDS011;33997;53.278;9.708;2023-09-19T04:29:57;2.40;;;0.93;;
48207;SDS011;33997;53.278;9.708;2023-09-19T04:32:24;2.25;;;1.10;;
48207;SDS011;33997;53.278;9.708;2023-09-19T04:34:53;2.10;;;0.95;;
48207;SDS011;33997;53.278;9.708;2023-09-19T04:37:18;4.40;;;1.23;;
48207;SDS011;33997;53.278;9.708;2023-09-19T04:39:44;7.97;;;1.30;;
48207;SDS011;33997;53.278;9.708;2023-09-19T04:42:10;5.50;;;0.90;;
48207;SDS011;33997;53.278;9.708;2023-09-19T04:44:39;4.53;;;0.98;;
48207;SDS011;33997;53.278;9.708;2023-09-19T04:47:05;6.03;;;1.30;;
48207;SDS011;33997;53.278;9.708;2023-09-19T04:49:31;7.07;;;1.17;;
48207;SDS011;33997;53.278;9.708;2023-09-19T04:51:56;6.28;;;1.52;;
48207;SDS011;33997;53.278;9.708;2023-09-19T04:54:22;4.55;;;1.23;;
48207;SDS011;33997;53.278;9.708;2023-09-19T04:56:47;5.80;;;1.17;;
48207;SDS011;33997;53.278;9.708;2023-09-19T04:59:13;4.43;;;1.48;;
48207;SDS011;33997;53.278;9.708;2023-09-19T05:01:39;6.47;;;1.55;;
48207;SDS011;33997;53.278;9.708;2023-09-19T05:04:05;5.75;;;1.50;;
48207;SDS011;33997;53.278;9.708;2023-09-19T05:06:30;5.53;;;1.08;;
48207;SDS011;33997;53.278;9.708;2023-09-19T05:08:56;5.28;;;1.40;;
48207;SDS011;33997;53.278;9.708;2023-09-19T05:11:22;3.75;;;1.30;;
48207;SDS011;33997;53.278;9.708;2023-09-19T05:13:48;4.18;;;1.40;;
48207;SDS011;33997;53.278;9.708;2023-09-19T05:16:15;5.43;;;1.30;;
48207;SDS011;33997;53.278;9.708;2023-09-19T05:18:41;6.85;;;2.08;;
48207;SDS011;33997;53.278;9.708;2023-09-19T05:21:07;3.60;;;1.33;;
48207;SDS011;33997;53.278;9.708;2023-09-19T05:23:32;5.35;;;1.50;;
48207;SDS011;33997;53.278;9.708;2023-09-19T05:25:58;7.88;;;1.58;;
48207;SDS011;33997;53.278;9.708;2023-09-19T05:28:24;7.93;;;1.23;;
48207;SDS011;33997;53.278;9.708;2023-09-19T05:30:51;6.63;;;1.90;;
48207;SDS011;33997;53.278;9.708;2023-09-19T05:33:18;7.45;;;1.80;;
48207;SDS011;33997;53.278;9.708;2023-09-19T05:35:43;3.83;;;1.25;;
48207;SDS011;33997;53.278;9.708;2023-09-19T05:38:11;6.13;;;1.55;;
48207;SDS011;33997;53.278;9.708;2023-09-19T05:40:38;13.57;;;1.80;;
48207;SDS011;33997;53.278;9.708;2023-09-19T05:43:07;3.85;;;1.50;;
48207;SDS011;33997;53.278;9.708;2023-09-19T05:45:36;5.60;;;1.45;;
48207;SDS011;33997;53.278;9.708;2023-09-19T05:48:09;4.88;;;1.17;;
48207;SDS011;33997;53.278;9.708;2023-09-19T05:50:40;7.30;;;1.70;;
48207;SDS011;33997;53.278;9.708;2023-09-19T05:53:06;7.43;;;2.22;;
48207;SDS011;33997;53.278;9.708;2023-09-19T05:55:32;7.93;;;1.92;;
48207;SDS011;33997;53.278;9.708;2023-09-19T05:57:57;5.82;;;1.50;;
48207;SDS011;33997;53.278;9.708;2023-09-19T06:00:24;4.20;;;1.65;;
48207;SDS011;33997;53.278;9.708;2023-09-19T06:02:56;4.25;;;1.63;;
48207;SDS011;33997;53.278;9.708;2023-09-19T06:05:22;8.03;;;1.70;;
48207;SDS011;33997;53.278;9.708;2023-09-19T06:07:49;8.30;;;1.80;;
48207;SDS011;33997;53.278;9.708;2023-09-19T06:10:15;6.03;;;1.83;;
48207;SDS011;33997;53.278;9.708;2023-09-19T06:12:42;7.45;;;1.95;;
48207;SDS011;33997;53.278;9.708;2023-09-19T06:15:11;6.35;;;1.92;;
48207;SDS011;33997;53.278;9.708;2023-09-19T06:17:40;8.65;;;1.75;;
48207;SDS011;33997;53.278;9.708;2023-09-19T06:20:15;7.90;;;1.58;;
48207;SDS011;33997;53.278;9.708;2023-09-19T06:22:42;5.68;;;1.45;;
48207;SDS011;33997;53.278;9.708;2023-09-19T06:25:09;11.30;;;1.98;;
48207;SDS011;33997;53.278;9.708;2023-09-19T06:27:37;5.80;;;1.58;;
48207;SDS011;33997;53.278;9.708;2023-09-19T06:30:04;8.30;;;1.70;;
48207;SDS011;33997;53.278;9.708;2023-09-19T06:32:31;7.03;;;1.77;;
48207;SDS011;33997;53.278;9.708;2023-09-19T06:34:56;6.50;;;1.48;;
48207;SDS011;33997;53.278;9.708;2023-09-19T06:37:26;7.43;;;1.63;;
48207;SDS011;33997;53.278;9.708;2023-09-19T06:39:52;5.80;;;1.50;;
48207;SDS011;33997;53.278;9.708;2023-09-19T06:42:18;7.25;;;1.90;;
48207;SDS011;33997;53.278;9.708;2023-09-19T06:44:44;4.63;;;1.67;;
48207;SDS011;33997;53.278;9.708;2023-09-19T06:47:09;4.88;;;1.65;;
48207;SDS011;33997;53.278;9.708;2023-09-19T06:49:35;8.98;;;2.00;;
48207;SDS011;33997;53.278;9.708;2023-09-19T06:52:02;8.25;;;2.17;;
48207;SDS011;33997;53.278;9.708;2023-09-19T06:54:28;7.32;;;1.50;;
48207;SDS011;33997;53.278;9.708;2023-09-19T06:56:59;5.53;;;1.60;;
48207;SDS011;33997;53.278;9.708;2023-09-19T06:59:24;6.53;;;1.48;;
48207;SDS011;33997;53.278;9.708;2023-09-19T07:01:50;5.97;;;1.63;;
48207;SDS011;33997;53.278;9.708;2023-09-19T07:04:16;7.13;;;2.17;;
48207;SDS011;33997;53.278;9.708;2023-09-19T07:06:44;7.60;;;1.73;;
48207;SDS011;33997;53.278;9.708;2023-09-19T07:09:11;6.25;;;1.65;;
48207;SDS011;33997;53.278;9.708;2023-09-19T07:11:37;9.80;;;1.60;;
48207;SDS011;33997;53.278;9.708;2023-09-19T07:14:03;6.80;;;1.83;;
48207;SDS011;33997;53.278;9.708;2023-09-19T07:16:28;5.40;;;1.83;;
48207;SDS011;33997;53.278;9.708;2023-09-19T07:18:54;6.78;;;1.80;;
48207;SDS011;33997;53.278;9.708;2023-09-19T07:21:21;6.68;;;1.60;;
48207;SDS011;33997;53.278;9.708;2023-09-19T07:23:47;6.07;;;1.50;;
48207;SDS011;33997;53.278;9.708;2023-09-19T07:26:12;7.07;;;1.58;;
48207;SDS011;33997;53.278;9.708;2023-09-19T07:28:38;5.88;;;2.00;;
48207;SDS011;33997;53.278;9.708;2023-09-19T07:31:03;11.30;;;2.25;;
48207;SDS011;33997;53.278;9.708;2023-09-19T07:33:30;7.82;;;1.77;;
48207;SDS011;33997;53.278;9.708;2023-09-19T07:35:56;5.35;;;1.90;;
48207;SDS011;33997;53.278;9.708;2023-09-19T07:38:21;5.65;;;1.60;;
48207;SDS011;33997;53.278;9.708;2023-09-19T07:40:47;5.68;;;1.52;;
48207;SDS011;33997;53.278;9.708;2023-09-19T07:43:13;11.88;;;1.92;;
48207;SDS011;33997;53.278;9.708;2023-09-19T07:45:38;11.02;;;1.70;;
48207;SDS011;33997;53.278;9.708;2023-09-19T07:48:04;4.80;;;1.60;;
48207;SDS011;33997;53.278;9.708;2023-09-19T07:50:32;8.77;;;1.52;;
48207;SDS011;33997;53.278;9.708;2023-09-19T07:53:01;8.07;;;1.63;;
48207;SDS011;33997;53.278;9.708;2023-09-19T07:55:29;7.35;;;1.70;;
48207;SDS011;33997;53.278;9.708;2023-09-19T07:57:55;9.90;;;2.10;;
48207;SDS011;33997;53.278;9.708;2023-09-19T08:00:21;6.03;;;1.65;;
48207;SDS011;33997;53.278;9.708;2023-09-19T08:02:46;6.63;;;1.67;;
48207;SDS011;33997;53.278;9.708;2023-09-19T08:05:17;7.75;;;1.60;;
48207;SDS011;33997;53.278;9.708;2023-09-19T08:07:43;7.53;;;1.42;;
48207;SDS011;33997;53.278;9.708;2023-09-19T08:10:13;8.77;;;1.60;;
48207;SDS011;33997;53.278;9.708;2023-09-19T08:12:40;7.88;;;1.55;;
48207;SDS011;33997;53.278;9.708;2023-09-19T08:15:16;7.75;;;1.58;;
48207;SDS011;33997;53.278;9.708;2023-09-19T08:17:46;6.85;;;1.42;;
48207;SDS011;33997;53.278;9.708;2023-09-19T08:20:12;5.07;;;1.20;;
48207;SDS011;33997;53.278;9.708;2023-09-19T08:22:49;5.72;;;1.40;;
48207;SDS011;33997;53.278;9.708;2023-09-19T08:25:17;6.80;;;1.30;;
48207;SDS011;33997;53.278;9.708;2023-09-19T08:27:43;9.45;;;1.65;;
48207;SDS011;33997;53.278;9.708;2023-09-19T08:30:20;4.95;;;1.30;;
48207;SDS011;33997;53.278;9.708;2023-09-19T08:32:56;5.05;;;1.08;;
48207;SDS011;33997;53.278;9.708;2023-09-19T08:35:23;8.70;;;1.75;;
48207;SDS011;33997;53.278;9.708;2023-09-19T08:37:49;7.10;;;1.38;;
48207;SDS011;33997;53.278;9.708;2023-09-19T08:40:15;5.97;;;1.35;;
48207;SDS011;33997;53.278;9.708;2023-09-19T08:42:48;11.15;;;1.70;;
48207;SDS011;33997;53.278;9.708;2023-09-19T08:45:18;5.72;;;1.30;;
48207;SDS011;33997;53.278;9.708;2023-09-19T08:47:55;6.18;;;1.48;;
48207;SDS011;33997;53.278;9.708;2023-09-19T08:50:24;5.30;;;1.48;;
48207;SDS011;33997;53.278;9.708;2023-09-19T08:52:53;9.55;;;1.75;;
48207;SDS011;33997;53.278;9.708;2023-09-19T08:55:21;6.88;;;1.75;;
48207;SDS011;33997;53.278;9.708;2023-09-19T08:57:52;6.00;;;1.13;;
48207;SDS011;33997;53.278;9.708;2023-09-19T09:00:24;4.60;;;1.60;;
48207;SDS011;33997;53.278;9.708;2023-09-19T09:02:50;5.45;;;1.30;;
48207;SDS011;33997;53.278;9.708;2023-09-19T09:05:16;4.38;;;1.33;;
48207;SDS011;33997;53.278;9.708;2023-09-19T09:07:47;6.22;;;1.48;;
48207;SDS011;33997;53.278;9.708;2023-09-19T09:10:15;5.25;;;1.08;;
48207;SDS011;33997;53.278;9.708;2023-09-19T09:12:41;4.18;;;0.90;;
48207;SDS011;33997;53.278;9.708;2023-09-19T09:15:08;7.38;;;1.40;;
48207;SDS011;33997;53.278;9.708;2023-09-19T09:17:36;5.20;;;1.42;;
48207;SDS011;33997;53.278;9.708;2023-09-19T09:20:02;5.20;;;1.23;;
48207;SDS011;33997;53.278;9.708;2023-09-19T09:22:30;6.82;;;1.30;;
48207;SDS011;33997;53.278;9.708;2023-09-19T09:24:57;6.00;;;1.40;;
48207;SDS011;33997;53.278;9.708;2023-09-19T09:27:23;6.20;;;1.00;;
48207;SDS011;33997;53.278;9.708;2023-09-19T09:29:50;5.07;;;1.27;;
48207;SDS011;33997;53.278;9.708;2023-09-19T09:32:17;4.00;;;0.95;;
48207;SDS011;33997;53.278;9.708;2023-09-19T09:34:59;8.30;;;1.05;;
48207;SDS011;33997;53.278;9.708;2023-09-19T09:37:26;7.07;;;1.40;;
48207;SDS011;33997;53.278;9.708;2023-09-19T09:42:44;5.88;;;1.20;;
48207;SDS011;33997;53.278;9.708;2023-09-19T09:45:12;5.38;;;1.33;;
48207;SDS011;33997;53.278;9.708;2023-09-19T09:47:42;5.93;;;1.23;;
48207;SDS011;33997;53.278;9.708;2023-09-19T09:50:28;7.78;;;1.05;;
48207;SDS011;33997;53.278;9.708;2023-09-19T09:53:25;4.97;;;1.40;;
48207;SDS011;33997;53.278;9.708;2023-09-19T09:58:52;3.65;;;1.20;;
48207;SDS011;33997;53.278;9.708;2023-09-19T10:01:21;5.97;;;1.20;;
48207;SDS011;33997;53.278;9.708;2023-09-19T10:03:52;4.40;;;0.90;;
48207;SDS011;33997;53.278;9.708;2023-09-19T10:06:22;5.00;;;1.10;;
48207;SDS011;33997;53.278;9.708;2023-09-19T10:08:58;6.05;;;1.10;;
48207;SDS011;33997;53.278;9.708;2023-09-19T10:14:13;7.45;;;1.38;;
48207;SDS011;33997;53.278;9.708;2023-09-19T10:16:47;7.57;;;1.40;;
48207;SDS011;33997;53.278;9.708;2023-09-19T10:19:20;8.95;;;1.35;;
48207;SDS011;33997;53.278;9.708;2023-09-19T10:21:50;7.28;;;1.40;;
48207;SDS011;33997;53.278;9.708;2023-09-19T10:24:18;5.32;;;1.00;;
48207;SDS011;33997;53.278;9.708;2023-09-19T10:26:45;4.50;;;1.10;;
48207;SDS011;33997;53.278;9.708;2023-09-19T10:29:12;8.93;;;1.25;;
48207;SDS011;33997;53.278;9.708;2023-09-19T10:31:42;6.15;;;1.48;;
48207;SDS011;33997;53.278;9.708;2023-09-19T10:34:12;6.75;;;1.05;;
48207;SDS011;33997;53.278;9.708;2023-09-19T10:36:40;3.50;;;0.90;;
48207;SDS011;33997;53.278;9.708;2023-09-19T10:39:12;4.72;;;0.98;;
48207;SDS011;33997;53.278;9.708;2023-09-19T10:41:44;4.95;;;0.98;;
48207;SDS011;33997;53.278;9.708;2023-09-19T10:44:19;4.00;;;1.02;;
48207;SDS011;33997;53.278;9.708;2023-09-19T10:46:47;7.03;;;1.52;;
48207;SDS011;33997;53.278;9.708;2023-09-19T10:49:13;6.03;;;1.48;;
48207;SDS011;33997;53.278;9.708;2023-09-19T10:51:41;2.15;;;0.95;;
48207;SDS011;33997;53.278;9.708;2023-09-19T10:54:13;3.78;;;1.33;;
48207;SDS011;33997;53.278;9.708;2023-09-19T10:56:43;4.38;;;1.00;;
48207;SDS011;33997;53.278;9.708;2023-09-19T10:59:17;5.32;;;1.10;;
48207;SDS011;33997;53.278;9.708;2023-09-19T11:01:47;6.97;;;1.20;;
48207;SDS011;33997;53.278;9.708;2023-09-19T11:04:24;3.72;;;0.93;;
48207;SDS011;33997;53.278;9.708;2023-09-19T11:07:03;8.30;;;1.30;;
48207;SDS011;33997;53.278;9.708;2023-09-19T11:09:50;6.57;;;1.52;;
48207;SDS011;33997;53.278;9.708;2023-09-19T11:14:54;4.63;;;1.00;;
48207;SDS011;33997;53.278;9.708;2023-09-19T11:30:30;4.90;;;1.33;;
48207;SDS011;33997;53.278;9.708;2023-09-19T11:35:58;6.25;;;1.25;;
48207;SDS011;33997;53.278;9.708;2023-09-19T11:44:32;10.32;;;1.40;;
48207;SDS011;33997;53.278;9.708;2023-09-19T11:49:16;3.83;;;1.10;;
48207;SDS011;33997;53.278;9.708;2023-09-19T11:51:48;4.60;;;1.25;;
48207;SDS011;33997;53.278;9.708;2023-09-19T11:54:19;5.15;;;1.70;;
48207;SDS011;33997;53.278;9.708;2023-09-19T11:56:53;2.85;;;0.85;;
48207;SDS011;33997;53.278;9.708;2023-09-19T11:59:38;6.10;;;1.27;;
48207;SDS011;33997;53.278;9.708;2023-09-19T12:02:04;6.00;;;1.33;;
48207;SDS011;33997;53.278;9.708;2023-09-19T12:04:40;6.25;;;1.42;;
48207;SDS011;33997;53.278;9.708;2023-09-19T12:07:08;7.22;;;1.10;;
48207;SDS011;33997;53.278;9.708;2023-09-19T12:09:50;7.18;;;1.20;;
48207;SDS011;33997;53.278;9.708;2023-09-19T12:12:29;5.78;;;1.40;;
48207;SDS011;33997;53.278;9.708;2023-09-19T12:14:56;7.13;;;1.50;;
48207;SDS011;33997;53.278;9.708;2023-09-19T12:17:46;7.10;;;1.45;;
48207;SDS011;33997;53.278;9.708;2023-09-19T12:20:12;7.43;;;1.48;;
48207;SDS011;33997;53.278;9.708;2023-09-19T12:22:41;6.75;;;1.67;;
48207;SDS011;33997;53.278;9.708;2023-09-19T12:25:08;6.05;;;1.40;;
48207;SDS011;33997;53.278;9.708;2023-09-19T12:27:43;6.65;;;1.40;;
48207;SDS011;33997;53.278;9.708;2023-09-19T12:30:11;6.05;;;1.50;;
48207;SDS011;33997;53.278;9.708;2023-09-19T12:32:42;4.40;;;1.48;;
48207;SDS011;33997;53.278;9.708;2023-09-19T12:35:09;6.32;;;1.50;;
48207;SDS011;33997;53.278;9.708;2023-09-19T12:37:42;3.70;;;1.63;;
48207;SDS011;33997;53.278;9.708;2023-09-19T12:40:13;7.43;;;1.42;;
48207;SDS011;33997;53.278;9.708;2023-09-19T12:42:42;5.13;;;1.33;;
48207;SDS011;33997;53.278;9.708;2023-09-19T12:45:11;3.83;;;1.42;;
48207;SDS011;33997;53.278;9.708;2023-09-19T12:47:40;7.97;;;1.88;;
48207;SDS011;33997;53.278;9.708;2023-09-19T12:52:46;4.32;;;1.25;;
48207;SDS011;33997;53.278;9.708;2023-09-19T12:58:03;7.53;;;1.67;;
48207;SDS011;33997;53.278;9.708;2023-09-19T13:00:39;5.75;;;1.45;;
48207;SDS011;33997;53.278;9.708;2023-09-19T13:03:16;6.07;;;1.48;;
48207;SDS011;33997;53.278;9.708;2023-09-19T13:06:00;5.63;;;1.75;;
48207;SDS011;33997;53.278;9.708;2023-09-19T13:08:29;5.25;;;1.35;;
48207;SDS011;33997;53.278;9.708;2023-09-19T13:16:29;5.10;;;1.50;;
48207;SDS011;33997;53.278;9.708;2023-09-19T13:18:55;3.17;;;1.30;;
48207;SDS011;33997;53.278;9.708;2023-09-19T13:21:30;4.60;;;1.55;;
48207;SDS011;33997;53.278;9.708;2023-09-19T13:26:52;4.53;;;1.30;;
48207;SDS011;33997;53.278;9.708;2023-09-19T13:29:22;4.97;;;1.15;;
48207;SDS011;33997;53.278;9.708;2023-09-19T13:31:51;3.05;;;1.05;;
48207;SDS011;33997;53.278;9.708;2023-09-19T13:34:20;5.75;;;1.25;;
48207;SDS011;33997;53.278;9.708;2023-09-19T13:36:46;4.30;;;1.50;;
48207;SDS011;33997;53.278;9.708;2023-09-19T13:39:13;8.50;;;1.42;;
48207;SDS011;33997;53.278;9.708;2023-09-19T13:41:43;5.82;;;1.52;;
48207;SDS011;33997;53.278;9.708;2023-09-19T13:44:11;3.17;;;0.85;;
48207;SDS011;33997;53.278;9.708;2023-09-19T13:46:37;5.75;;;1.23;;
48207;SDS011;33997;53.278;9.708;2023-09-19T13:49:02;3.90;;;1.10;;
48207;SDS011;33997;53.278;9.708;2023-09-19T13:51:31;5.82;;;1.35;;
48207;SDS011;33997;53.278;9.708;2023-09-19T13:53:57;4.63;;;1.45;;
48207;SDS011;33997;53.278;9.708;2023-09-19T13:56:22;5.72;;;1.52;;
48207;SDS011;33997;53.278;9.708;2023-09-19T13:58:49;5.25;;;1.42;;
48207;SDS011;33997;53.278;9.708;2023-09-19T14:01:15;4.70;;;1.45;;
48207;SDS011;33997;53.278;9.708;2023-09-19T14:03:40;3.25;;;1.35;;
48207;SDS011;33997;53.278;9.708;2023-09-19T14:08:37;4.55;;;1.30;;
48207;SDS011;33997;53.278;9.708;2023-09-19T14:11:06;6.25;;;1.75;;
48207;SDS011;33997;53.278;9.708;2023-09-19T14:13:32;4.78;;;1.33;;
48207;SDS011;33997;53.278;9.708;2023-09-19T14:16:02;4.30;;;1.40;;
48207;SDS011;33997;53.278;9.708;2023-09-19T14:18:30;7.10;;;1.38;;
48207;SDS011;33997;53.278;9.708;2023-09-19T14:20:55;4.88;;;1.40;;
48207;SDS011;33997;53.278;9.708;2023-09-19T14:23:21;6.43;;;1.35;;
48207;SDS011;33997;53.278;9.708;2023-09-19T14:25:48;3.80;;;1.10;;
48207;SDS011;33997;53.278;9.708;2023-09-19T14:28:13;7.30;;;1.45;;
48207;SDS011;33997;53.278;9.708;2023-09-19T14:30:39;5.43;;;1.10;;
48207;SDS011;33997;53.278;9.708;2023-09-19T14:33:04;3.22;;;1.20;;
48207;SDS011;33997;53.278;9.708;2023-09-19T14:35:31;3.55;;;1.13;;
48207;SDS011;33997;53.278;9.708;2023-09-19T14:37:56;6.38;;;1.77;;
48207;SDS011;33997;53.278;9.708;2023-09-19T14:40:22;5.22;;;1.15;;
48207;SDS011;33997;53.278;9.708;2023-09-19T14:42:47;5.10;;;1.23;;
48207;SDS011;33997;53.278;9.708;2023-09-19T14:45:13;4.05;;;1.30;;
48207;SDS011;33997;53.278;9.708;2023-09-19T14:47:42;9.73;;;1.70;;
48207;SDS011;33997;53.278;9.708;2023-09-19T14:50:09;5.03;;;1.40;;
48207;SDS011;33997;53.278;9.708;2023-09-19T14:52:35;5.03;;;1.38;;
48207;SDS011;33997;53.278;9.708;2023-09-19T14:55:01;4.78;;;1.25;;
48207;SDS011;33997;53.278;9.708;2023-09-19T14:57:27;9.45;;;1.77;;
48207;SDS011;33997;53.278;9.708;2023-09-19T14:59:53;6.07;;;1.27;;
48207;SDS011;33997;53.278;9.708;2023-09-19T15:02:19;5.07;;;1.45;;
48207;SDS011;33997;53.278;9.708;2023-09-19T15:04:44;5.22;;;1.42;;
48207;SDS011;33997;53.278;9.708;2023-09-19T15:07:11;7.00;;;1.90;;
48207;SDS011;33997;53.278;9.708;2023-09-19T15:09:39;6.78;;;1.88;;
48207;SDS011;33997;53.278;9.708;2023-09-19T15:12:05;6.78;;;1.52;;
48207;SDS011;33997;53.278;9.708;2023-09-19T15:14:31;6.00;;;1.38;;
48207;SDS011;33997;53.278;9.708;2023-09-19T15:16:56;6.43;;;1.50;;
48207;SDS011;33997;53.278;9.708;2023-09-19T15:19:22;5.22;;;1.27;;
48207;SDS011;33997;53.278;9.708;2023-09-19T15:21:48;5.90;;;1.70;;
48207;SDS011;33997;53.278;9.708;2023-09-19T15:24:13;4.70;;;1.38;;
48207;SDS011;33997;53.278;9.708;2023-09-19T15:26:39;4.75;;;1.45;;
48207;SDS011;33997;53.278;9.708;2023-09-19T15:29:05;7.85;;;1.67;;
48207;SDS011;33997;53.278;9.708;2023-09-19T15:31:31;4.28;;;1.50;;
48207;SDS011;33997;53.278;9.708;2023-09-19T15:33:57;4.07;;;1.63;;
48207;SDS011;33997;53.278;9.708;2023-09-19T15:36:23;5.53;;;1.38;;
48207;SDS011;33997;53.278;9.708;2023-09-19T15:39:01;5.43;;;1.75;;
48207;SDS011;33997;53.278;9.708;2023-09-19T15:41:29;7.43;;;1.55;;
48207;SDS011;33997;53.278;9.708;2023-09-19T15:43:57;6.53;;;1.48;;
48207;SDS011;33997;53.278;9.708;2023-09-19T15:46:26;5.25;;;1.63;;
48207;SDS011;33997;53.278;9.708;2023-09-19T15:48:52;8.68;;;1.65;;
48207;SDS011;33997;53.278;9.708;2023-09-19T15:51:18;7.70;;;1.92;;
48207;SDS011;33997;53.278;9.708;2023-09-19T15:53:45;8.20;;;1.73;;
48207;SDS011;33997;53.278;9.708;2023-09-19T15:56:15;3.20;;;1.13;;
48207;SDS011;33997;53.278;9.708;2023-09-19T15:58:45;4.88;;;1.88;;